Latest Weather Observations for Perth Airport

IDW60801

Issued at 10:02 am WST Tuesday 21 May 2024 (issued every 10 minutes, with the page automatically refreshed every 10 minutes)

About weather observations | Map of weather stations | Latest weather observations for WA | Other Formats
Station Details ID: 009021 Name: PERTH AIRPORT Lat: -31.93 Lon: 115.98 Height: 15.4 m
Data from the previous 72 hours. | See also: Recent months at Perth Airport
Date/Time
WST
Temp
°C
App
Temp
°C
Dew
Point
°C
Rel
Hum
%
Delta-T
°C
Wind Press
QNH
hPa
Press
MSL
hPa
Rain since
9am
mm
Dir  Spd
km/h
Gust
km/h
Spd
kts
Gust
kts
21/09:30am 18.5 14.6 3.6 37 7.0 NE 13 20 7 11 1025.2 1025.2 0.0
21/09:00am 17.1 13.2 3.4 40 6.3 NE 13 17 7 9 1025.3 1025.3 0.0
21/08:30am 15.8 11.9 3.3 43 5.7 NE 13 15 7 8 1025.3 1025.3 0.0
21/08:00am 15.1 11.2 3.3 45 5.3 NE 13 19 7 10 1025.0 1025.0 0.0
21/07:30am 14.8 10.8 3.0 45 5.3 NE 13 19 7 10 1024.8 1024.8 0.0
21/07:00am 14.9 10.9 3.1 45 5.3 NE 13 17 7 9 1024.5 1024.5 0.0
21/06:30am 15.0 10.7 3.2 45 5.3 NE 15 22 8 12 1024.2 1024.2 0.0
21/06:00am 14.9 10.6 3.1 45 5.3 ENE 15 22 8 12 1024.0 1024.0 0.0
21/05:30am 15.2 11.2 3.0 44 5.5 NE 13 19 7 10 1024.0 1024.0 0.0
21/05:00am 15.1 11.6 3.3 45 5.3 NE 11 15 6 8 1023.8 1023.8 0.0
21/04:30am 15.0 11.4 3.2 45 5.3 NE 11 13 6 7 1023.7 1023.7 0.0
21/04:00am 15.6 12.0 3.1 43 5.6 NE 11 11 6 6 1023.6 1023.6 0.0
21/03:30am 15.7 12.5 3.2 43 5.7 NNE 9 11 5 6 1023.7 1023.7 0.0
21/03:00am 15.7 12.1 3.2 43 5.7 NE 11 15 6 8 1023.7 1023.7 0.0
21/02:30am 15.7 11.8 3.2 43 5.7 NE 13 15 7 8 1023.8 1023.8 0.0
21/02:00am 16.0 12.5 3.4 43 5.7 NE 11 13 6 7 1024.0 1024.0 0.0
21/01:30am 16.0 12.9 3.4 43 5.8 NNE 9 13 5 7 1023.8 1023.8 0.0
21/01:00am 15.8 13.1 3.6 44 5.6 NE 7 9 4 5 1023.9 1023.9 0.0
21/12:30am 16.0 12.5 3.4 43 5.8 NE 11 15 6 8 1023.9 1023.9 0.0
21/12:00am 16.5 13.3 3.2 41 6.1 NNE 9 9 5 5 1024.0 1024.0 0.0
 
Date/Time
WST
Temp
°C
App
Temp
°C
Dew
Point
°C
Rel
Hum
%
Delta-T
°C
Wind Press
QNH
hPa
Press
MSL
hPa
Rain since
9am
mm
Dir  Spd
km/h
Gust
km/h
Spd
kts
Gust
kts
20/11:30pm 17.5 13.5 3.0 38 6.7 NE 13 15 7 8 1024.1 1024.1 0.0
20/11:00pm 17.3 13.4 3.6 40 6.3 NE 13 19 7 10 1024.3 1024.3 0.0
20/10:30pm 17.0 13.1 3.3 40 6.3 ENE 13 15 7 8 1024.2 1024.2 0.0
20/10:00pm 17.8 14.7 3.7 39 6.6 NE 9 13 5 7 1024.4 1024.4 0.0
20/09:30pm 18.3 14.4 3.4 37 7.0 NE 13 13 7 7 1024.3 1024.3 0.0
20/09:00pm 18.6 14.7 3.6 37 7.0 NE 13 17 7 9 1024.2 1024.2 0.0
20/08:30pm 19.1 14.4 3.3 35 7.4 ENE 17 17 9 9 1024.2 1024.2 0.0
20/08:00pm 18.9 15.0 3.5 36 7.2 ENE 13 15 7 8 1024.0 1024.0 0.0
20/07:30pm 18.1 14.3 3.9 39 6.7 E 13 15 7 8 1023.9 1023.9 0.0
20/07:00pm 18.2 14.5 4.4 40 6.5 E 13 24 7 13 1023.8 1023.8 0.0
20/06:30pm 18.0 14.4 4.9 42 6.3 E 13 15 7 8 1023.6 1023.6 0.0
20/06:00pm 18.4 15.1 4.6 40 6.6 E 11 15 6 8 1023.4 1023.4 0.0
20/05:30pm 20.2 16.9 4.7 36 7.5 ESE 11 19 6 10 1023.2 1023.2 0.0
20/05:00pm 22.3 19.7 4.4 31 8.7 ENE 7 9 4 5 1023.1 1023.1 0.0
20/04:30pm 24.0 21.9 5.8 31 9.3 ENE 6 7 3 4 1023.1 1023.1 0.0
20/04:00pm 25.0 21.7 2.4 23 10.8 NE 9 11 5 6 1023.1 1023.1 0.0
20/03:30pm 25.1 21.4 2.5 23 10.9 NNE 11 15 6 8 1023.1 1023.1 0.0
20/03:00pm 25.1 21.1 3.1 24 10.7 NNE 13 17 7 9 1022.9 1022.9 0.0
20/02:30pm 25.1 21.3 3.7 25 10.6 NE 13 19 7 10 1022.9 1022.9 0.0
20/02:00pm 24.9 20.3 3.5 25 10.5 NNE 17 26 9 14 1022.9 1022.9 0.0
20/01:30pm 24.7 19.6 2.8 24 10.6 NNE 19 28 10 15 1023.2 1023.2 0.0
20/01:00pm 24.5 18.9 3.2 25 10.3 NNE 22 28 12 15 1023.6 1023.6 0.0
20/12:30pm 24.7 19.5 3.4 25 10.4 NNE 20 30 11 16 1023.7 1023.7 0.0
20/12:00pm 24.7 19.2 3.9 26 10.2 NNE 22 30 12 16 1023.9 1023.9 0.0
20/11:30am 23.8 17.1 3.7 27 9.8 NNE 28 37 15 20 1024.5 1024.5 0.0
20/11:00am 23.1 16.4 3.6 28 9.4 NNE 28 33 15 18 1025.0 1025.0 0.0
20/10:30am 22.4 15.3 3.5 29 9.1 NNE 30 37 16 20 1025.1 1025.1 0.0
20/10:00am 21.7 14.6 3.4 30 8.7 NNE 30 39 16 21 1025.3 1025.3 0.0
20/09:30am 22.0 16.4 3.6 30 8.9 NNE 22 30 12 16 1025.3 1025.3 0.0
20/09:00am 21.1 14.7 3.3 31 8.4 NE 26 33 14 18 1025.3 1025.3 0.0
20/08:30am 19.6 14.4 3.3 34 7.7 NE 20 32 11 17 1025.2 1025.2 0.0
20/08:00am 17.7 12.6 2.8 37 6.8 ENE 19 22 10 12 1025.1 1025.1 0.0
20/07:30am 17.4 12.7 3.0 38 6.6 NE 17 24 9 13 1025.1 1025.1 0.0
20/07:00am 16.4 11.9 2.4 39 6.3 NE 15 22 8 12 1024.8 1024.8 0.0
20/06:30am 16.5 11.3 2.5 39 6.3 ENE 19 28 10 15 1024.7 1024.7 0.0
20/06:00am 16.5 11.6 2.2 38 6.4 ENE 17 19 9 10 1024.6 1024.6 0.0
20/05:30am 17.4 12.5 1.8 35 7.0 ENE 17 26 9 14 1024.5 1024.5 0.0
20/05:00am 17.7 13.9 1.7 34 7.1 NE 11 15 6 8 1024.6 1024.6 0.0
20/04:30am 18.1 13.8 1.2 32 7.5 NE 13 15 7 8 1024.2 1024.2 0.0
20/04:00am 18.1 13.4 0.7 31 7.6 NE 15 17 8 9 1024.0 1024.0 0.0
20/03:30am 18.6 12.8 0.2 29 8.1 NE 20 28 11 15 1023.6 1023.6 0.0
20/03:00am 18.4 12.8 0.1 29 7.9 NE 19 26 10 14 1023.7 1023.7 0.0
20/02:30am 17.2 11.7 0.4 32 7.3 NE 19 30 10 16 1023.4 1023.4 0.0
20/02:00am 17.4 11.8 0.1 31 7.4 NE 19 24 10 13 1023.3 1023.3 0.0
20/01:30am 17.2 11.5 0.4 32 7.3 NE 20 28 11 15 1023.2 1023.2 0.0
20/01:00am 17.9 12.1 0.1 30 7.7 NE 20 26 11 14 1023.3 1023.3 0.0
20/12:30am 18.2 11.3 0.4 30 7.8 ENE 26 32 14 17 1023.3 1023.3 0.0
20/12:00am 18.3 12.2 0.4 30 7.8 ENE 22 28 12 15 1023.4 1023.4 0.0
 
Date/Time
WST
Temp
°C
App
Temp
°C
Dew
Point
°C
Rel
Hum
%
Delta-T
°C
Wind Press
QNH
hPa
Press
MSL
hPa
Rain since
9am
mm
Dir  Spd
km/h
Gust
km/h
Spd
kts
Gust
kts
19/11:30pm 17.6 11.9 0.7 32 7.4 ENE 20 26 11 14 1023.6 1023.6 0.0
19/11:00pm 16.4 12.5 1.3 36 6.6 ENE 11 13 6 7 1024.1 1024.1 0.0
19/10:30pm 12.8 10.0 2.1 48 4.6 NNE 6 7 3 4 1024.2 1024.2 0.0
19/10:00pm 12.9 10.6 2.7 50 4.5 ESE 4 9 2 5 1024.5 1024.5 0.0
19/09:30pm 13.8 12.1 2.1 45 5.1 CALM 0 0 0 0 1024.6 1024.6 0.0
19/09:00pm 14.4 11.6 2.0 43 5.4 N 6 7 3 4 1024.7 1024.7 0.0
19/08:30pm 14.8 13.0 1.3 40 5.9 CALM 0 0 0 0 1024.5 1024.5 0.0
19/08:00pm 15.9 14.2 1.6 38 6.3 CALM 0 0 0 0 1024.5 1024.5 0.0
19/07:30pm 16.0 12.9 1.3 37 6.4 E 7 9 4 5 1024.5 1024.5 0.0
19/07:00pm 17.4 13.9 1.4 34 7.1 E 9 11 5 6 1024.7 1024.7 0.0
19/06:30pm 18.3 14.0 1.3 32 7.6 E 13 17 7 9 1023.8 1023.8 0.0
19/06:00pm 19.0 15.0 0.6 29 8.1 ENE 11 11 6 6 1023.8 1023.8 0.0
19/05:30pm 22.4 17.9 -0.3 22 10.2 NE 13 15 7 8 1023.6 1023.6 0.0
19/05:00pm 24.5 19.3 0.1 20 11.2 NE 17 22 9 12 1023.2 1023.2 0.0
19/04:30pm 25.3 20.1 0.0 19 11.7 NE 17 24 9 13 1023.1 1023.1 0.0
19/04:00pm 26.3 21.2 0.9 19 12.0 NE 17 26 9 14 1023.2 1023.2 0.0
19/03:30pm 26.1 20.6 0.7 19 11.9 ENE 19 28 10 15 1023.1 1023.1 0.0
19/03:00pm 26.8 23.4 2.0 20 11.9 N 9 17 5 9 1023.3 1023.3 0.0
19/02:30pm 26.4 22.4 3.0 22 11.5 ENE 13 19 7 10 1023.4 1023.4 0.0
19/02:00pm 26.4 22.7 2.3 21 11.6 NNE 11 28 6 15 1023.7 1023.7 0.0
19/01:30pm 26.5 22.2 3.1 22 11.5 ENE 15 28 8 15 1024.3 1024.3 0.0
19/01:00pm 26.1 20.7 2.7 22 11.4 NNE 20 28 11 15 1024.2 1024.2 0.0
19/12:30pm 25.8 20.7 3.1 23 11.1 NE 19 32 10 17 1024.6 1024.6 0.0
19/12:00pm 25.1 19.3 2.5 23 10.8 NE 22 32 12 17 1024.9 1024.9 0.0
19/11:30am 24.4 18.7 3.1 25 10.3 NNE 22 32 12 17 1025.7 1025.7 0.0
19/11:00am 24.0 17.7 3.9 27 9.8 NNE 26 33 14 18 1026.2 1026.2 0.0
19/10:30am 23.0 16.4 4.0 29 9.3 NNE 28 35 15 19 1026.4 1026.4 0.0
19/10:00am 22.1 16.5 3.7 30 8.8 NNE 22 32 12 17 1026.6 1026.6 0.0
19/09:30am 21.1 15.3 4.2 33 8.2 NNE 24 32 13 17 1026.6 1026.6 0.0
19/09:00am 20.4 15.3 4.0 34 7.8 NNE 20 28 11 15 1026.8 1026.8 0.0
19/08:30am 19.2 14.3 4.2 37 7.2 NE 19 32 10 17 1026.7 1026.7 0.0
19/08:00am 18.3 12.4 4.1 39 6.7 NE 24 32 13 17 1026.5 1026.5 0.0
19/07:30am 17.3 11.5 4.3 42 6.1 NE 24 32 13 17 1026.2 1026.2 0.0
19/07:00am 17.1 11.2 4.1 42 6.1 NE 24 32 13 17 1026.0 1026.0 0.0
19/06:30am 17.2 12.2 4.5 43 6.0 NE 20 26 11 14 1025.8 1025.8 0.0
19/06:00am 17.1 12.3 4.4 43 6.0 NE 19 28 10 15 1025.8 1025.8 0.0
19/05:30am 17.2 12.3 4.2 42 6.1 NE 19 28 10 15 1025.7 1025.7 0.0
19/05:00am 17.7 12.8 4.3 41 6.3 NE 19 28 10 15 1025.7 1025.7 0.0
19/04:30am 17.6 12.5 3.9 40 6.4 NE 20 26 11 14 1025.8 1025.8 0.0
19/04:00am 17.9 12.9 3.8 39 6.6 NE 19 26 10 14 1025.8 1025.8 0.0
19/03:30am 18.2 13.6 3.7 38 6.8 NE 17 22 9 12 1025.8 1025.8 0.0
19/03:00am 18.1 12.8 3.2 37 6.9 NE 20 28 11 15 1025.8 1025.8 0.0
19/02:30am 18.5 14.3 3.6 37 7.0 NNE 15 19 8 10 1025.7 1025.7 0.0
19/02:00am 15.6 11.8 3.7 45 5.4 NE 13 15 7 8 1025.6 1025.6 0.0
19/01:30am 15.1 11.6 3.6 46 5.3 ENE 11 15 6 8 1025.6 1025.6 0.0
19/01:00am 17.5 12.3 3.8 40 6.4 ENE 20 26 11 14 1025.5 1025.5 0.0
19/12:30am 17.8 12.3 4.0 40 6.5 ENE 22 28 12 15 1025.5 1025.5 0.0
19/12:00am 18.1 13.2 3.9 39 6.6 ENE 19 24 10 13 1025.9 1025.9 0.0
 
Date/Time
WST
Temp
°C
App
Temp
°C
Dew
Point
°C
Rel
Hum
%
Delta-T
°C
Wind Press
QNH
hPa
Press
MSL
hPa
Rain since
9am
mm
Dir  Spd
km/h
Gust
km/h
Spd
kts
Gust
kts
18/11:30pm 18.1 13.9 3.9 39 6.7 NE 15 19 8 10 1025.9 1025.9 0.0
18/11:00pm 18.4 14.2 3.8 38 6.8 NE 15 33 8 18 1026.0 1026.0 0.0
18/10:30pm 18.8 14.6 3.8 37 7.1 ENE 15 19 8 10 1026.1 1026.1 0.0
18/10:00pm 19.4 13.1 3.6 35 7.4 ENE 26 32 14 17 1025.9 1025.9 0.0
18/09:30pm 19.2 14.6 3.8 36 7.3 ENE 17 22 9 12 1026.1 1026.1 0.0
18/09:00pm 20.2 15.1 3.9 34 7.7 ENE 20 28 11 15 1025.9 1025.9 0.0
18/08:30pm 20.3 15.2 3.9 34 7.8 E 20 28 11 15 1025.8 1025.8 0.0
18/08:00pm 19.2 14.7 4.2 37 7.1 E 17 24 9 13 1025.9 1025.9 0.0
18/07:30pm 17.9 14.9 4.1 40 6.5 E 9 11 5 6 1026.0 1026.0 0.0
18/07:00pm 16.8 13.1 4.2 43 5.9 E 13 20 7 11 1025.7 1025.7 0.0
18/06:30pm 18.6 14.8 4.0 38 6.9 ESE 13 17 7 9 1025.6 1025.6 0.0
18/06:00pm 20.5 16.7 3.7 33 8.0 E 13 17 7 9 1025.5 1025.5 0.0
18/05:30pm 23.0 18.7 3.5 28 9.4 E 15 24 8 13 1025.3 1025.3 0.0
18/05:00pm 25.6 21.0 3.6 24 10.8 ENE 17 19 9 10 1025.1 1025.1 0.0
18/04:30pm 26.8 21.4 2.7 21 11.8 ENE 20 30 11 16 1024.8 1024.8 0.0
18/04:00pm 27.4 21.8 3.2 21 12.0 ENE 22 28 12 15 1024.7 1024.7 0.0
18/03:30pm 27.5 21.1 3.2 21 12.1 ENE 26 32 14 17 1024.6 1024.6 0.0
18/03:00pm 27.7 21.6 2.7 20 12.3 NE 24 32 13 17 1024.5 1024.5 0.0
18/02:30pm 28.0 21.9 3.0 20 12.4 NE 24 35 13 19 1024.6 1024.6 0.0
18/02:00pm 27.7 22.2 4.1 22 11.9 ENE 22 33 12 18 1024.9 1024.9 0.0
18/01:30pm 26.9 21.5 4.6 24 11.3 ENE 22 30 12 16 1025.4 1025.4 0.0
18/01:00pm 26.2 20.2 5.2 26 10.7 ENE 26 37 14 20 1025.8 1025.8 0.0
18/12:30pm 26.0 20.1 5.6 27 10.5 NE 26 33 14 18 1026.5 1026.5 0.0
18/12:00pm 25.2 19.2 5.4 28 10.0 NE 26 35 14 19 1027.1 1027.1 0.0
18/11:30am 24.3 18.0 5.6 30 9.5 NE 28 39 15 21 1027.6 1027.6 0.0
18/11:00am 24.3 18.1 6.1 31 9.3 NE 28 41 15 22 1028.1 1028.1 0.0
18/10:30am 23.8 18.0 6.1 32 9.0 NE 26 37 14 20 1028.5 1028.5 0.0

Other formats

Comma delimited format used in spreadsheet applications
http://www.bom.gov.au/fwo/IDW60801/IDW60801.94610.axf

JavaScript Object Notation format (JSON) in row-major order
http://www.bom.gov.au/fwo/IDW60801/IDW60801.94610.json

Data quality

Most of these data are generated automatically and are frequently updated. Quality checks on data are not normally performed. It is possible for incorrect values to appear. Refer to information at About Latest Weather Observations and please check the disclaimer before using these data.